sensor_id;sensor_type;location;lat;lon;timestamp;P1;durP1;ratioP1;P2;durP2;ratioP2
10537;SDS011;5317;49.048;8.468;2023-03-01T00:01:35;15.88;;;10.18;;
10537;SDS011;5317;49.048;8.468;2023-03-01T00:04:02;15.23;;;11.00;;
10537;SDS011;5317;49.048;8.468;2023-03-01T00:06:29;13.65;;;10.27;;
10537;SDS011;5317;49.048;8.468;2023-03-01T00:08:56;11.23;;;9.77;;
10537;SDS011;5317;49.048;8.468;2023-03-01T00:11:25;12.65;;;9.25;;
10537;SDS011;5317;49.048;8.468;2023-03-01T00:13:54;13.63;;;10.07;;
10537;SDS011;5317;49.048;8.468;2023-03-01T00:16:23;13.55;;;9.45;;
10537;SDS011;5317;49.048;8.468;2023-03-01T00:18:53;11.82;;;10.32;;
10537;SDS011;5317;49.048;8.468;2023-03-01T00:21:20;11.00;;;9.60;;
10537;SDS011;5317;49.048;8.468;2023-03-01T00:23:48;12.52;;;9.05;;
10537;SDS011;5317;49.048;8.468;2023-03-01T00:26:16;11.77;;;9.70;;
10537;SDS011;5317;49.048;8.468;2023-03-01T00:28:46;13.73;;;9.70;;
10537;SDS011;5317;49.048;8.468;2023-03-01T00:31:14;11.20;;;8.75;;
10537;SDS011;5317;49.048;8.468;2023-03-01T00:33:42;12.25;;;9.48;;
10537;SDS011;5317;49.048;8.468;2023-03-01T00:36:10;12.23;;;9.57;;
10537;SDS011;5317;49.048;8.468;2023-03-01T00:38:37;10.27;;;8.77;;
10537;SDS011;5317;49.048;8.468;2023-03-01T00:41:05;11.55;;;9.07;;
10537;SDS011;5317;49.048;8.468;2023-03-01T00:43:33;14.52;;;9.50;;
10537;SDS011;5317;49.048;8.468;2023-03-01T00:46:03;10.90;;;8.73;;
10537;SDS011;5317;49.048;8.468;2023-03-01T00:48:31;11.98;;;8.85;;
10537;SDS011;5317;49.048;8.468;2023-03-01T00:51:03;12.02;;;9.27;;
10537;SDS011;5317;49.048;8.468;2023-03-01T00:53:30;12.65;;;9.38;;
10537;SDS011;5317;49.048;8.468;2023-03-01T00:55:57;11.63;;;10.18;;
10537;SDS011;5317;49.048;8.468;2023-03-01T00:58:25;12.38;;;8.88;;
10537;SDS011;5317;49.048;8.468;2023-03-01T01:00:52;12.23;;;9.55;;
10537;SDS011;5317;49.048;8.468;2023-03-01T01:03:21;11.77;;;9.23;;
10537;SDS011;5317;49.048;8.468;2023-03-01T01:05:49;11.45;;;9.38;;
10537;SDS011;5317;49.048;8.468;2023-03-01T01:08:16;12.85;;;9.30;;
10537;SDS011;5317;49.048;8.468;2023-03-01T01:10:43;11.30;;;9.05;;
10537;SDS011;5317;49.048;8.468;2023-03-01T01:13:10;11.70;;;9.23;;
10537;SDS011;5317;49.048;8.468;2023-03-01T01:15:37;11.88;;;8.75;;
10537;SDS011;5317;49.048;8.468;2023-03-01T01:18:04;10.85;;;8.52;;
10537;SDS011;5317;49.048;8.468;2023-03-01T01:20:34;11.60;;;8.90;;
10537;SDS011;5317;49.048;8.468;2023-03-01T01:23:02;11.63;;;9.25;;
10537;SDS011;5317;49.048;8.468;2023-03-01T01:25:33;9.90;;;8.18;;
10537;SDS011;5317;49.048;8.468;2023-03-01T01:28:00;11.32;;;9.25;;
10537;SDS011;5317;49.048;8.468;2023-03-01T01:30:27;12.98;;;9.02;;
10537;SDS011;5317;49.048;8.468;2023-03-01T01:32:54;12.52;;;9.10;;
10537;SDS011;5317;49.048;8.468;2023-03-01T01:35:21;10.13;;;8.93;;
10537;SDS011;5317;49.048;8.468;2023-03-01T01:37:49;12.27;;;9.50;;
10537;SDS011;5317;49.048;8.468;2023-03-01T01:40:16;13.80;;;9.38;;
10537;SDS011;5317;49.048;8.468;2023-03-01T01:42:43;13.70;;;9.35;;
10537;SDS011;5317;49.048;8.468;2023-03-01T01:45:27;10.65;;;9.38;;
10537;SDS011;5317;49.048;8.468;2023-03-01T01:47:57;10.43;;;8.60;;
10537;SDS011;5317;49.048;8.468;2023-03-01T01:50:27;10.63;;;9.07;;
10537;SDS011;5317;49.048;8.468;2023-03-01T01:53:04;11.48;;;8.57;;
10537;SDS011;5317;49.048;8.468;2023-03-01T01:55:32;12.90;;;9.45;;
10537;SDS011;5317;49.048;8.468;2023-03-01T01:58:02;12.50;;;9.55;;
10537;SDS011;5317;49.048;8.468;2023-03-01T02:00:31;12.90;;;9.85;;
10537;SDS011;5317;49.048;8.468;2023-03-01T02:02:59;11.77;;;9.80;;
10537;SDS011;5317;49.048;8.468;2023-03-01T02:05:32;12.73;;;9.93;;
10537;SDS011;5317;49.048;8.468;2023-03-01T02:08:04;12.02;;;9.18;;
10537;SDS011;5317;49.048;8.468;2023-03-01T02:10:31;13.90;;;10.13;;
10537;SDS011;5317;49.048;8.468;2023-03-01T02:13:00;11.23;;;9.10;;
10537;SDS011;5317;49.048;8.468;2023-03-01T02:15:31;11.30;;;9.70;;
10537;SDS011;5317;49.048;8.468;2023-03-01T02:18:00;12.70;;;9.88;;
10537;SDS011;5317;49.048;8.468;2023-03-01T02:20:29;14.57;;;9.93;;
10537;SDS011;5317;49.048;8.468;2023-03-01T02:23:01;12.80;;;10.40;;
10537;SDS011;5317;49.048;8.468;2023-03-01T02:25:34;13.85;;;10.13;;
10537;SDS011;5317;49.048;8.468;2023-03-01T02:28:08;13.57;;;10.52;;
10537;SDS011;5317;49.048;8.468;2023-03-01T02:30:44;11.50;;;9.70;;
10537;SDS011;5317;49.048;8.468;2023-03-01T02:33:26;13.50;;;9.85;;
10537;SDS011;5317;49.048;8.468;2023-03-01T02:35:57;12.52;;;9.82;;
10537;SDS011;5317;49.048;8.468;2023-03-01T02:38:26;12.18;;;9.20;;
10537;SDS011;5317;49.048;8.468;2023-03-01T02:40:54;15.38;;;9.93;;
10537;SDS011;5317;49.048;8.468;2023-03-01T02:43:25;13.00;;;9.90;;
10537;SDS011;5317;49.048;8.468;2023-03-01T02:45:57;13.07;;;9.93;;
10537;SDS011;5317;49.048;8.468;2023-03-01T02:48:38;11.75;;;9.73;;
10537;SDS011;5317;49.048;8.468;2023-03-01T02:51:09;12.10;;;9.85;;
10537;SDS011;5317;49.048;8.468;2023-03-01T02:53:41;13.63;;;9.48;;
10537;SDS011;5317;49.048;8.468;2023-03-01T02:56:19;13.23;;;10.43;;
10537;SDS011;5317;49.048;8.468;2023-03-01T02:58:48;12.18;;;9.63;;
10537;SDS011;5317;49.048;8.468;2023-03-01T03:01:16;11.10;;;9.90;;
10537;SDS011;5317;49.048;8.468;2023-03-01T03:03:43;12.85;;;10.05;;
10537;SDS011;5317;49.048;8.468;2023-03-01T03:06:11;15.50;;;10.32;;
10537;SDS011;5317;49.048;8.468;2023-03-01T03:08:38;14.73;;;10.60;;
10537;SDS011;5317;49.048;8.468;2023-03-01T03:11:05;12.27;;;10.32;;
10537;SDS011;5317;49.048;8.468;2023-03-01T03:13:32;11.80;;;9.85;;
10537;SDS011;5317;49.048;8.468;2023-03-01T03:16:00;12.88;;;10.63;;
10537;SDS011;5317;49.048;8.468;2023-03-01T03:18:29;15.27;;;11.35;;
10537;SDS011;5317;49.048;8.468;2023-03-01T03:20:56;10.70;;;9.10;;
10537;SDS011;5317;49.048;8.468;2023-03-01T03:23:23;11.90;;;9.77;;
10537;SDS011;5317;49.048;8.468;2023-03-01T03:25:50;14.02;;;9.80;;
10537;SDS011;5317;49.048;8.468;2023-03-01T03:28:17;13.77;;;10.70;;
10537;SDS011;5317;49.048;8.468;2023-03-01T03:30:44;10.82;;;9.73;;
10537;SDS011;5317;49.048;8.468;2023-03-01T03:33:13;14.90;;;10.60;;
10537;SDS011;5317;49.048;8.468;2023-03-01T03:35:41;15.65;;;11.15;;
10537;SDS011;5317;49.048;8.468;2023-03-01T03:38:09;15.50;;;11.48;;
10537;SDS011;5317;49.048;8.468;2023-03-01T03:40:42;17.10;;;10.90;;
10537;SDS011;5317;49.048;8.468;2023-03-01T03:43:11;13.13;;;10.70;;
10537;SDS011;5317;49.048;8.468;2023-03-01T03:45:39;15.15;;;10.68;;
10537;SDS011;5317;49.048;8.468;2023-03-01T03:48:07;14.30;;;10.95;;
10537;SDS011;5317;49.048;8.468;2023-03-01T03:50:37;15.73;;;11.70;;
10537;SDS011;5317;49.048;8.468;2023-03-01T03:53:05;13.23;;;10.57;;
10537;SDS011;5317;49.048;8.468;2023-03-01T03:55:34;14.65;;;10.55;;
10537;SDS011;5317;49.048;8.468;2023-03-01T03:58:04;14.90;;;11.10;;
10537;SDS011;5317;49.048;8.468;2023-03-01T04:00:33;13.95;;;10.65;;
10537;SDS011;5317;49.048;8.468;2023-03-01T04:03:01;14.52;;;10.82;;
10537;SDS011;5317;49.048;8.468;2023-03-01T04:05:28;14.90;;;10.85;;
10537;SDS011;5317;49.048;8.468;2023-03-01T04:07:57;13.18;;;11.02;;
10537;SDS011;5317;49.048;8.468;2023-03-01T04:10:32;15.40;;;10.95;;
10537;SDS011;5317;49.048;8.468;2023-03-01T04:13:01;16.08;;;11.05;;
10537;SDS011;5317;49.048;8.468;2023-03-01T04:15:28;15.10;;;11.35;;
10537;SDS011;5317;49.048;8.468;2023-03-01T04:17:56;14.23;;;11.40;;
10537;SDS011;5317;49.048;8.468;2023-03-01T04:20:25;16.90;;;11.63;;
10537;SDS011;5317;49.048;8.468;2023-03-01T04:22:59;15.25;;;11.40;;
10537;SDS011;5317;49.048;8.468;2023-03-01T04:25:35;17.65;;;11.35;;
10537;SDS011;5317;49.048;8.468;2023-03-01T04:28:03;15.25;;;11.05;;
10537;SDS011;5317;49.048;8.468;2023-03-01T04:30:30;14.10;;;10.77;;
10537;SDS011;5317;49.048;8.468;2023-03-01T04:33:00;14.07;;;10.85;;
10537;SDS011;5317;49.048;8.468;2023-03-01T04:35:28;14.80;;;11.45;;
10537;SDS011;5317;49.048;8.468;2023-03-01T04:37:55;13.77;;;11.07;;
10537;SDS011;5317;49.048;8.468;2023-03-01T04:40:24;16.27;;;11.15;;
10537;SDS011;5317;49.048;8.468;2023-03-01T04:42:51;16.77;;;11.88;;
10537;SDS011;5317;49.048;8.468;2023-03-01T04:45:17;13.50;;;11.63;;
10537;SDS011;5317;49.048;8.468;2023-03-01T04:47:45;14.77;;;11.65;;
10537;SDS011;5317;49.048;8.468;2023-03-01T04:50:13;13.68;;;10.93;;
10537;SDS011;5317;49.048;8.468;2023-03-01T04:52:41;16.90;;;11.60;;
10537;SDS011;5317;49.048;8.468;2023-03-01T04:55:10;14.32;;;11.15;;
10537;SDS011;5317;49.048;8.468;2023-03-01T04:57:37;16.27;;;11.02;;
10537;SDS011;5317;49.048;8.468;2023-03-01T05:00:05;15.18;;;11.82;;
10537;SDS011;5317;49.048;8.468;2023-03-01T05:02:45;16.23;;;11.77;;
10537;SDS011;5317;49.048;8.468;2023-03-01T05:05:13;15.32;;;11.32;;
10537;SDS011;5317;49.048;8.468;2023-03-01T05:07:40;14.60;;;11.63;;
10537;SDS011;5317;49.048;8.468;2023-03-01T05:10:07;15.93;;;12.23;;
10537;SDS011;5317;49.048;8.468;2023-03-01T05:12:36;14.30;;;11.02;;
10537;SDS011;5317;49.048;8.468;2023-03-01T05:15:03;14.85;;;11.25;;
10537;SDS011;5317;49.048;8.468;2023-03-01T05:17:32;14.60;;;10.93;;
10537;SDS011;5317;49.048;8.468;2023-03-01T05:19:59;15.75;;;11.90;;
10537;SDS011;5317;49.048;8.468;2023-03-01T05:22:26;17.35;;;12.20;;
10537;SDS011;5317;49.048;8.468;2023-03-01T05:24:53;16.38;;;12.05;;
10537;SDS011;5317;49.048;8.468;2023-03-01T05:27:21;14.88;;;11.68;;
10537;SDS011;5317;49.048;8.468;2023-03-01T05:29:48;17.88;;;12.38;;
10537;SDS011;5317;49.048;8.468;2023-03-01T05:32:15;16.13;;;12.15;;
10537;SDS011;5317;49.048;8.468;2023-03-01T05:34:42;14.88;;;11.88;;
10537;SDS011;5317;49.048;8.468;2023-03-01T05:37:09;15.43;;;12.05;;
10537;SDS011;5317;49.048;8.468;2023-03-01T05:39:36;15.93;;;12.18;;
10537;SDS011;5317;49.048;8.468;2023-03-01T05:42:03;16.80;;;12.25;;
10537;SDS011;5317;49.048;8.468;2023-03-01T05:44:31;15.75;;;12.20;;
10537;SDS011;5317;49.048;8.468;2023-03-01T05:46:58;17.40;;;12.27;;
10537;SDS011;5317;49.048;8.468;2023-03-01T05:49:25;16.88;;;12.70;;
10537;SDS011;5317;49.048;8.468;2023-03-01T05:51:52;14.77;;;12.15;;
10537;SDS011;5317;49.048;8.468;2023-03-01T05:54:20;16.77;;;12.15;;
10537;SDS011;5317;49.048;8.468;2023-03-01T05:56:47;16.95;;;11.60;;
10537;SDS011;5317;49.048;8.468;2023-03-01T05:59:14;15.30;;;12.15;;
10537;SDS011;5317;49.048;8.468;2023-03-01T06:01:43;16.17;;;12.32;;
10537;SDS011;5317;49.048;8.468;2023-03-01T06:04:10;15.63;;;11.70;;
10537;SDS011;5317;49.048;8.468;2023-03-01T06:06:37;17.40;;;12.18;;
10537;SDS011;5317;49.048;8.468;2023-03-01T06:09:04;16.58;;;12.32;;
10537;SDS011;5317;49.048;8.468;2023-03-01T06:11:33;15.77;;;11.88;;
10537;SDS011;5317;49.048;8.468;2023-03-01T06:14:00;15.32;;;12.07;;
10537;SDS011;5317;49.048;8.468;2023-03-01T06:16:26;16.67;;;12.85;;
10537;SDS011;5317;49.048;8.468;2023-03-01T06:18:55;18.23;;;13.63;;
10537;SDS011;5317;49.048;8.468;2023-03-01T06:21:22;16.75;;;11.90;;
10537;SDS011;5317;49.048;8.468;2023-03-01T06:23:48;17.02;;;12.25;;
10537;SDS011;5317;49.048;8.468;2023-03-01T06:26:16;15.55;;;12.75;;
10537;SDS011;5317;49.048;8.468;2023-03-01T06:28:43;15.50;;;12.48;;
10537;SDS011;5317;49.048;8.468;2023-03-01T06:31:11;19.30;;;13.20;;
10537;SDS011;5317;49.048;8.468;2023-03-01T06:33:38;17.55;;;12.70;;
10537;SDS011;5317;49.048;8.468;2023-03-01T06:36:07;15.93;;;12.45;;
10537;SDS011;5317;49.048;8.468;2023-03-01T06:38:35;18.30;;;12.93;;
10537;SDS011;5317;49.048;8.468;2023-03-01T06:41:02;16.63;;;12.85;;
10537;SDS011;5317;49.048;8.468;2023-03-01T06:43:28;16.45;;;12.98;;
10537;SDS011;5317;49.048;8.468;2023-03-01T06:45:55;17.77;;;13.07;;
10537;SDS011;5317;49.048;8.468;2023-03-01T06:48:22;17.15;;;13.30;;
10537;SDS011;5317;49.048;8.468;2023-03-01T06:50:49;16.95;;;12.80;;
10537;SDS011;5317;49.048;8.468;2023-03-01T06:53:17;18.35;;;12.40;;
10537;SDS011;5317;49.048;8.468;2023-03-01T06:55:44;17.40;;;12.38;;
10537;SDS011;5317;49.048;8.468;2023-03-01T06:58:11;17.65;;;13.25;;
10537;SDS011;5317;49.048;8.468;2023-03-01T07:00:38;18.73;;;13.77;;
10537;SDS011;5317;49.048;8.468;2023-03-01T07:03:05;18.88;;;13.15;;
10537;SDS011;5317;49.048;8.468;2023-03-01T07:05:33;19.38;;;14.00;;
10537;SDS011;5317;49.048;8.468;2023-03-01T07:08:00;16.33;;;12.82;;
10537;SDS011;5317;49.048;8.468;2023-03-01T07:10:28;16.30;;;13.05;;
10537;SDS011;5317;49.048;8.468;2023-03-01T07:12:56;16.83;;;13.32;;
10537;SDS011;5317;49.048;8.468;2023-03-01T07:15:23;16.50;;;13.18;;
10537;SDS011;5317;49.048;8.468;2023-03-01T07:17:50;19.50;;;14.02;;
10537;SDS011;5317;49.048;8.468;2023-03-01T07:20:17;18.20;;;13.77;;
10537;SDS011;5317;49.048;8.468;2023-03-01T07:22:47;20.17;;;13.02;;
10537;SDS011;5317;49.048;8.468;2023-03-01T07:25:14;18.80;;;13.13;;
10537;SDS011;5317;49.048;8.468;2023-03-01T07:27:42;18.08;;;13.85;;
10537;SDS011;5317;49.048;8.468;2023-03-01T07:30:10;18.38;;;12.75;;
10537;SDS011;5317;49.048;8.468;2023-03-01T07:32:37;17.08;;;12.85;;
10537;SDS011;5317;49.048;8.468;2023-03-01T07:35:04;17.25;;;12.85;;
10537;SDS011;5317;49.048;8.468;2023-03-01T07:37:32;16.67;;;12.45;;
10537;SDS011;5317;49.048;8.468;2023-03-01T07:39:59;18.80;;;12.48;;
10537;SDS011;5317;49.048;8.468;2023-03-01T07:42:26;17.73;;;13.07;;
10537;SDS011;5317;49.048;8.468;2023-03-01T07:44:54;16.25;;;13.45;;
10537;SDS011;5317;49.048;8.468;2023-03-01T07:47:21;17.50;;;12.90;;
10537;SDS011;5317;49.048;8.468;2023-03-01T07:49:48;20.20;;;13.23;;
10537;SDS011;5317;49.048;8.468;2023-03-01T07:52:14;18.83;;;13.85;;
10537;SDS011;5317;49.048;8.468;2023-03-01T07:54:42;16.10;;;13.23;;
10537;SDS011;5317;49.048;8.468;2023-03-01T07:57:09;20.50;;;14.60;;
10537;SDS011;5317;49.048;8.468;2023-03-01T07:59:36;15.60;;;12.45;;
10537;SDS011;5317;49.048;8.468;2023-03-01T08:02:04;16.85;;;13.27;;
10537;SDS011;5317;49.048;8.468;2023-03-01T08:04:32;16.30;;;12.60;;
10537;SDS011;5317;49.048;8.468;2023-03-01T08:06:59;17.35;;;13.00;;
10537;SDS011;5317;49.048;8.468;2023-03-01T08:09:26;17.50;;;13.15;;
10537;SDS011;5317;49.048;8.468;2023-03-01T08:11:53;15.55;;;13.15;;
10537;SDS011;5317;49.048;8.468;2023-03-01T08:14:20;16.17;;;12.70;;
10537;SDS011;5317;49.048;8.468;2023-03-01T08:16:48;16.97;;;12.53;;
10537;SDS011;5317;49.048;8.468;2023-03-01T08:19:17;17.10;;;13.77;;
10537;SDS011;5317;49.048;8.468;2023-03-01T08:21:44;17.30;;;13.00;;
10537;SDS011;5317;49.048;8.468;2023-03-01T08:24:11;19.10;;;13.60;;
10537;SDS011;5317;49.048;8.468;2023-03-01T08:26:37;15.80;;;12.77;;
10537;SDS011;5317;49.048;8.468;2023-03-01T08:29:04;15.40;;;13.07;;
10537;SDS011;5317;49.048;8.468;2023-03-01T08:31:32;16.97;;;13.27;;
10537;SDS011;5317;49.048;8.468;2023-03-01T08:34:02;20.37;;;14.00;;
10537;SDS011;5317;49.048;8.468;2023-03-01T08:36:32;16.70;;;12.85;;
10537;SDS011;5317;49.048;8.468;2023-03-01T08:39:02;16.97;;;12.63;;
10537;SDS011;5317;49.048;8.468;2023-03-01T08:41:29;13.97;;;12.10;;
10537;SDS011;5317;49.048;8.468;2023-03-01T08:43:56;17.07;;;13.50;;
10537;SDS011;5317;49.048;8.468;2023-03-01T08:46:25;16.93;;;13.83;;
10537;SDS011;5317;49.048;8.468;2023-03-01T08:48:53;18.90;;;13.67;;
10537;SDS011;5317;49.048;8.468;2023-03-01T08:51:20;16.77;;;13.63;;
10537;SDS011;5317;49.048;8.468;2023-03-01T08:53:49;17.63;;;12.97;;
10537;SDS011;5317;49.048;8.468;2023-03-01T08:56:16;17.87;;;14.03;;
10537;SDS011;5317;49.048;8.468;2023-03-01T08:58:44;16.53;;;12.77;;
10537;SDS011;5317;49.048;8.468;2023-03-01T09:01:13;16.20;;;13.63;;
10537;SDS011;5317;49.048;8.468;2023-03-01T09:03:42;18.87;;;13.50;;
10537;SDS011;5317;49.048;8.468;2023-03-01T09:06:09;14.83;;;12.57;;
10537;SDS011;5317;49.048;8.468;2023-03-01T09:08:37;15.20;;;13.03;;
10537;SDS011;5317;49.048;8.468;2023-03-01T09:11:08;14.87;;;12.57;;
10537;SDS011;5317;49.048;8.468;2023-03-01T09:13:37;19.27;;;13.47;;
10537;SDS011;5317;49.048;8.468;2023-03-01T09:16:05;16.77;;;12.77;;
10537;SDS011;5317;49.048;8.468;2023-03-01T09:18:33;17.33;;;13.03;;
10537;SDS011;5317;49.048;8.468;2023-03-01T09:21:01;17.70;;;13.17;;
10537;SDS011;5317;49.048;8.468;2023-03-01T09:23:32;18.73;;;14.00;;
10537;SDS011;5317;49.048;8.468;2023-03-01T09:25:59;17.20;;;13.47;;
10537;SDS011;5317;49.048;8.468;2023-03-01T09:28:28;17.20;;;13.70;;
10537;SDS011;5317;49.048;8.468;2023-03-01T09:30:57;18.60;;;14.03;;
10537;SDS011;5317;49.048;8.468;2023-03-01T09:33:24;19.93;;;14.53;;
10537;SDS011;5317;49.048;8.468;2023-03-01T09:35:55;17.13;;;14.07;;
10537;SDS011;5317;49.048;8.468;2023-03-01T09:38:23;15.50;;;13.47;;
10537;SDS011;5317;49.048;8.468;2023-03-01T09:40:50;15.13;;;13.40;;
10537;SDS011;5317;49.048;8.468;2023-03-01T09:43:18;17.73;;;14.33;;
10537;SDS011;5317;49.048;8.468;2023-03-01T09:45:52;14.63;;;12.37;;
10537;SDS011;5317;49.048;8.468;2023-03-01T09:48:22;16.27;;;13.13;;
10537;SDS011;5317;49.048;8.468;2023-03-01T09:50:53;15.77;;;13.30;;
10537;SDS011;5317;49.048;8.468;2023-03-01T09:53:20;15.63;;;13.53;;
10537;SDS011;5317;49.048;8.468;2023-03-01T09:55:54;15.97;;;13.57;;
10537;SDS011;5317;49.048;8.468;2023-03-01T09:58:28;17.80;;;13.70;;
10537;SDS011;5317;49.048;8.468;2023-03-01T10:01:11;17.13;;;13.50;;
10537;SDS011;5317;49.048;8.468;2023-03-01T10:04:05;17.23;;;14.03;;
10537;SDS011;5317;49.048;8.468;2023-03-01T10:07:03;19.33;;;14.40;;
10537;SDS011;5317;49.048;8.468;2023-03-01T10:09:49;15.83;;;13.17;;
10537;SDS011;5317;49.048;8.468;2023-03-01T10:12:17;17.00;;;14.03;;
10537;SDS011;5317;49.048;8.468;2023-03-01T10:14:49;19.47;;;14.33;;
10537;SDS011;5317;49.048;8.468;2023-03-01T10:17:25;18.43;;;14.00;;
10537;SDS011;5317;49.048;8.468;2023-03-01T10:19:58;16.20;;;13.40;;
10537;SDS011;5317;49.048;8.468;2023-03-01T10:22:44;14.47;;;12.70;;
10537;SDS011;5317;49.048;8.468;2023-03-01T10:25:15;17.33;;;14.20;;
10537;SDS011;5317;49.048;8.468;2023-03-01T10:27:51;18.03;;;14.67;;
10537;SDS011;5317;49.048;8.468;2023-03-01T10:30:20;17.80;;;13.70;;
10537;SDS011;5317;49.048;8.468;2023-03-01T10:32:57;19.40;;;14.47;;
10537;SDS011;5317;49.048;8.468;2023-03-01T10:35:25;16.60;;;13.33;;
10537;SDS011;5317;49.048;8.468;2023-03-01T10:37:58;17.00;;;13.80;;
10537;SDS011;5317;49.048;8.468;2023-03-01T10:40:29;15.87;;;14.07;;
10537;SDS011;5317;49.048;8.468;2023-03-01T10:42:57;17.23;;;13.80;;
10537;SDS011;5317;49.048;8.468;2023-03-01T10:45:32;17.53;;;14.07;;
10537;SDS011;5317;49.048;8.468;2023-03-01T10:48:12;15.93;;;14.17;;
10537;SDS011;5317;49.048;8.468;2023-03-01T10:50:41;16.50;;;14.43;;
10537;SDS011;5317;49.048;8.468;2023-03-01T10:53:22;14.40;;;12.90;;
10537;SDS011;5317;49.048;8.468;2023-03-01T10:56:02;16.23;;;13.87;;
10537;SDS011;5317;49.048;8.468;2023-03-01T10:58:31;15.33;;;13.53;;
10537;SDS011;5317;49.048;8.468;2023-03-01T11:01:00;16.57;;;13.53;;
10537;SDS011;5317;49.048;8.468;2023-03-01T11:03:30;15.70;;;13.40;;
10537;SDS011;5317;49.048;8.468;2023-03-01T11:05:59;14.17;;;12.60;;
10537;SDS011;5317;49.048;8.468;2023-03-01T11:11:18;16.43;;;14.60;;
10537;SDS011;5317;49.048;8.468;2023-03-01T11:13:50;16.30;;;14.40;;
10537;SDS011;5317;49.048;8.468;2023-03-01T11:16:28;17.80;;;14.43;;
10537;SDS011;5317;49.048;8.468;2023-03-01T11:19:01;14.70;;;13.20;;
10537;SDS011;5317;49.048;8.468;2023-03-01T11:21:41;15.17;;;13.40;;
10537;SDS011;5317;49.048;8.468;2023-03-01T11:24:11;17.50;;;14.17;;
10537;SDS011;5317;49.048;8.468;2023-03-01T11:26:41;17.13;;;12.97;;
10537;SDS011;5317;49.048;8.468;2023-03-01T11:29:13;16.60;;;13.53;;
10537;SDS011;5317;49.048;8.468;2023-03-01T11:31:50;16.10;;;14.23;;
10537;SDS011;5317;49.048;8.468;2023-03-01T11:34:19;16.30;;;13.70;;
10537;SDS011;5317;49.048;8.468;2023-03-01T11:36:58;15.27;;;13.23;;
10537;SDS011;5317;49.048;8.468;2023-03-01T11:39:28;16.60;;;13.50;;
10537;SDS011;5317;49.048;8.468;2023-03-01T11:42:03;16.83;;;13.70;;
10537;SDS011;5317;49.048;8.468;2023-03-01T11:44:36;15.10;;;13.50;;
10537;SDS011;5317;49.048;8.468;2023-03-01T11:47:15;15.77;;;13.60;;
10537;SDS011;5317;49.048;8.468;2023-03-01T11:49:57;16.70;;;14.10;;
10537;SDS011;5317;49.048;8.468;2023-03-01T11:52:40;15.70;;;13.93;;
10537;SDS011;5317;49.048;8.468;2023-03-01T11:55:18;16.57;;;13.87;;
10537;SDS011;5317;49.048;8.468;2023-03-01T11:57:59;16.47;;;13.17;;
10537;SDS011;5317;49.048;8.468;2023-03-01T12:00:46;17.43;;;14.37;;
10537;SDS011;5317;49.048;8.468;2023-03-01T12:03:28;15.43;;;13.83;;
10537;SDS011;5317;49.048;8.468;2023-03-01T12:06:21;16.30;;;14.60;;
10537;SDS011;5317;49.048;8.468;2023-03-01T12:09:07;15.63;;;14.03;;
10537;SDS011;5317;49.048;8.468;2023-03-01T12:12:03;16.33;;;14.33;;
10537;SDS011;5317;49.048;8.468;2023-03-01T12:15:09;15.17;;;13.47;;
10537;SDS011;5317;49.048;8.468;2023-03-01T12:17:56;14.97;;;13.37;;
10537;SDS011;5317;49.048;8.468;2023-03-01T12:20:40;15.37;;;13.77;;
10537;SDS011;5317;49.048;8.468;2023-03-01T12:23:24;15.47;;;13.63;;
10537;SDS011;5317;49.048;8.468;2023-03-01T12:26:03;14.93;;;13.33;;
10537;SDS011;5317;49.048;8.468;2023-03-01T12:28:40;14.63;;;13.20;;
10537;SDS011;5317;49.048;8.468;2023-03-01T12:31:43;14.70;;;13.20;;
10537;SDS011;5317;49.048;8.468;2023-03-01T12:34:26;14.97;;;12.80;;
10537;SDS011;5317;49.048;8.468;2023-03-01T12:37:21;15.50;;;13.77;;
10537;SDS011;5317;49.048;8.468;2023-03-01T12:40:03;14.47;;;12.97;;
10537;SDS011;5317;49.048;8.468;2023-03-01T12:42:48;18.03;;;14.80;;
10537;SDS011;5317;49.048;8.468;2023-03-01T12:45:31;15.23;;;13.63;;
10537;SDS011;5317;49.048;8.468;2023-03-01T12:51:07;16.00;;;13.57;;
10537;SDS011;5317;49.048;8.468;2023-03-01T12:53:39;16.03;;;13.67;;
10537;SDS011;5317;49.048;8.468;2023-03-01T12:56:10;15.83;;;13.77;;
10537;SDS011;5317;49.048;8.468;2023-03-01T12:58:41;16.23;;;13.27;;
10537;SDS011;5317;49.048;8.468;2023-03-01T13:01:18;15.47;;;13.47;;
10537;SDS011;5317;49.048;8.468;2023-03-01T13:03:57;15.43;;;13.80;;
10537;SDS011;5317;49.048;8.468;2023-03-01T13:06:33;14.63;;;12.90;;
10537;SDS011;5317;49.048;8.468;2023-03-01T13:09:08;15.60;;;13.93;;
10537;SDS011;5317;49.048;8.468;2023-03-01T13:11:42;14.23;;;12.67;;
10537;SDS011;5317;49.048;8.468;2023-03-01T13:17:21;14.60;;;13.10;;
10537;SDS011;5317;49.048;8.468;2023-03-01T13:19:56;14.97;;;13.30;;
10537;SDS011;5317;49.048;8.468;2023-03-01T13:22:25;13.90;;;12.47;;
10537;SDS011;5317;49.048;8.468;2023-03-01T13:25:00;14.30;;;12.80;;
10537;SDS011;5317;49.048;8.468;2023-03-01T13:27:39;15.03;;;13.17;;
10537;SDS011;5317;49.048;8.468;2023-03-01T13:30:37;14.23;;;12.77;;
10537;SDS011;5317;49.048;8.468;2023-03-01T13:36:06;14.73;;;13.23;;
10537;SDS011;5317;49.048;8.468;2023-03-01T13:38:36;15.23;;;13.73;;
10537;SDS011;5317;49.048;8.468;2023-03-01T13:41:05;14.93;;;13.53;;
10537;SDS011;5317;49.048;8.468;2023-03-01T13:43:34;14.83;;;13.30;;
10537;SDS011;5317;49.048;8.468;2023-03-01T13:46:07;14.47;;;12.97;;
10537;SDS011;5317;49.048;8.468;2023-03-01T13:48:36;15.07;;;13.63;;
10537;SDS011;5317;49.048;8.468;2023-03-01T13:51:06;13.40;;;12.03;;
10537;SDS011;5317;49.048;8.468;2023-03-01T13:53:36;14.43;;;13.13;;
10537;SDS011;5317;49.048;8.468;2023-03-01T13:56:07;15.07;;;13.50;;
10537;SDS011;5317;49.048;8.468;2023-03-01T13:58:46;15.30;;;13.83;;
10537;SDS011;5317;49.048;8.468;2023-03-01T14:01:22;14.93;;;13.57;;
10537;SDS011;5317;49.048;8.468;2023-03-01T14:03:51;15.50;;;14.10;;
10537;SDS011;5317;49.048;8.468;2023-03-01T14:06:20;14.33;;;13.03;;
10537;SDS011;5317;49.048;8.468;2023-03-01T14:08:49;14.93;;;13.63;;
10537;SDS011;5317;49.048;8.468;2023-03-01T14:14:45;14.30;;;13.10;;
10537;SDS011;5317;49.048;8.468;2023-03-01T14:17:28;14.97;;;13.67;;
10537;SDS011;5317;49.048;8.468;2023-03-01T14:20:09;14.70;;;13.40;;
10537;SDS011;5317;49.048;8.468;2023-03-01T14:22:40;14.63;;;13.33;;
10537;SDS011;5317;49.048;8.468;2023-03-01T14:25:17;15.07;;;13.87;;
10537;SDS011;5317;49.048;8.468;2023-03-01T14:27:52;14.33;;;13.17;;
10537;SDS011;5317;49.048;8.468;2023-03-01T14:30:24;14.70;;;13.50;;
10537;SDS011;5317;49.048;8.468;2023-03-01T14:32:53;14.87;;;13.27;;
10537;SDS011;5317;49.048;8.468;2023-03-01T14:35:22;15.20;;;13.80;;
10537;SDS011;5317;49.048;8.468;2023-03-01T14:37:50;15.07;;;13.77;;
10537;SDS011;5317;49.048;8.468;2023-03-01T14:40:22;14.80;;;13.60;;
10537;SDS011;5317;49.048;8.468;2023-03-01T14:42:50;15.93;;;14.53;;
10537;SDS011;5317;49.048;8.468;2023-03-01T14:45:19;14.13;;;12.93;;
10537;SDS011;5317;49.048;8.468;2023-03-01T14:47:48;14.60;;;13.27;;
10537;SDS011;5317;49.048;8.468;2023-03-01T14:50:18;13.47;;;12.27;;
10537;SDS011;5317;49.048;8.468;2023-03-01T14:52:50;16.13;;;14.63;;
10537;SDS011;5317;49.048;8.468;2023-03-01T14:55:20;14.57;;;13.33;;
10537;SDS011;5317;49.048;8.468;2023-03-01T14:57:49;14.20;;;13.03;;
10537;SDS011;5317;49.048;8.468;2023-03-01T15:00:18;13.67;;;12.57;;
10537;SDS011;5317;49.048;8.468;2023-03-01T15:02:49;14.13;;;13.03;;
10537;SDS011;5317;49.048;8.468;2023-03-01T15:05:18;13.77;;;12.67;;
10537;SDS011;5317;49.048;8.468;2023-03-01T15:07:51;14.23;;;13.03;;
10537;SDS011;5317;49.048;8.468;2023-03-01T15:10:19;14.67;;;13.37;;
10537;SDS011;5317;49.048;8.468;2023-03-01T15:12:48;14.23;;;12.90;;